Loisir ou Compétition : Rejoignez un Club de la Fédération

Résultats

SAMSE NATIONAL TOUR FFS 1 COUPE DE FRANCE

ARVIEUX-BRUNISSARD

FS Hommes

Jury de Compétition

Délégué Technique :
LEBAS QUENTIN ()
D.T. Adjoint :
FINE CHRISTIAN (AP)
Dir. Epreuve :
BARBESIER ARNAUD (AP)

Caractéristiques de la Piste

Piste :
 
Distance :
7.5 km
Point Haut :
 
Point Bas :
 
Montée Tot. :
 
Montée Max. :
 
Homologation :
 

Pénalité Appliquée :
90.0000
Coefficient :
800

Catégorie :
U17
Style :
C
Clt Dos Clt/Cat Code An Nom Prénom Com Club Temps Ecart Points
Classés
1 128 1/U17 FFS2663675 2003 ESSONNIER IVAN SA CS LA FECLAZ 25:45.5 00:00.0 90.00
2 123 2/U17 FFS2670579 2003 ALLEMAND NEIL AP AS EDELWEISS 26:32.1 00:46.6 114.12
3 101 3/U17 FFS2681218 2003 ROUTIN HUGO MB PRAZ LYS-SOM 26:49.5 01:04.0 123.13
4 129 4/U17 FFS2670987 2003 VAUTHIER MATHURIN MV LA BRESSAUDE 26:59.8 01:14.3 128.46
5 43 5/U17 FFS2665222 2004 DEUFFIC CHARLY DA US AUTRANNAI 27:00.7 01:15.2 128.93
6 108 6/U17 FFS2664168 2004 VINCENT LENNIE MJ SKI ROUSSES 27:07.9 01:22.4 132.65
7 105 7/U17 FFS2670999 2003 BERNAUDON MATHIS AP MTGVE V.CLAR 27:08.9 01:23.4 133.17
8 117 8/U17 FFS2682382 2003 BOURGON JULES MJ SC VERRIERES 27:11.1 01:25.6 134.31
9 127 9/U17 FFS2658773 2003 MARSEILLE NATHAN AP GAP-BAYARD 27:24.3 01:38.8 141.14
10 89 10/U17 FFS2665667 2003 SCHULTZ PAUL LY SC LE POIZAT 27:30.1 01:44.6 144.14
11 34 11/U17 FFS2681664 2004 PERROUD DORIAN MB SCNP ROCHOIS 27:32.6 01:47.1 145.44
12 23 12/U17 FFS2675463 2003 MISSILLIER CONSTANT MB SC GD BORNAN 27:32.9 01:47.4 145.59
13 78 13/U17 FFS2676437 2003 BAVEREL PIERRE MJ ES SAUGETTE 27:33.6 01:48.1 145.96
14 59 14/U17 FFS2670259 2004 BLANCHARD TITOUAN MB CS LA CLUSAZ 27:35.3 01:49.8 146.84
15 8 15/U17 FFS2656732 2003 BLANC MATHIEU SA CS MERIBEL 27:39.3 01:53.8 148.91
16 116 16/U17 FFS2674908 2003 BRUNET JULIEN AP ORRES EMBRUN 27:46.9 02:01.4 152.84
17 40 17/U17 FFS2661562 2003 CHATEAUNEUF OSCAR MJ BOIS D'AMONT 27:48.1 02:02.6 153.46
18 109 18/U17 FFS2676132 2004 ZANELLATO UGO SA CS LA FECLAZ 27:49.1 02:03.6 153.98
19 98 19/U17 FFS2681916 2003 BERROT MARTIN MJ OYE-PALLET 27:52.6 02:07.1 155.79
20 82 20/U17 FFS2664151 2004 CAILLOT FELIX DA SA MEAUDRAIS 27:53.3 02:07.8 156.15
21 24 21/U17 FFS2659978 2004 BOTET MARTIN MV LA BRESSAUDE 27:56.7 02:11.2 157.91
22 9 22/U17 FFS2675689 2003 MALGRAND HUGO MB PRAZ LYS-SOM 28:00.6 02:15.1 159.93
23 95 23/U17 FFS2670858 2004 SICRE PAULIN AU EM LA TOUR 28:05.3 02:19.8 162.36
24 93 24/U17 FFS2653739 2003 GALLOIS ROMAN MJ BOIS D'AMONT 28:09.2 02:23.7 164.38
25 104 25/U17 FFS2676994 2004 GENEST NOA AU SC MEZENC 28:24.0 02:38.5 172.04
26 84 26/U17 FFS2675692 2004 LEUENBERGER LEO MV SC XONRUPT 28:28.0 02:42.5 174.12
27 77 27/U17 FFS2666900 2004 JAN PIERRE MV GERARDMER SN 28:30.7 02:45.2 175.51
28 10 28/U17 FFS2658787 2004 GAULIER AUBIN DA CS VILLARD 28:34.2 02:48.7 177.32
29 5 29/U17 FFS2670598 2003 DORO AXEL SA CS LA FECLAZ 28:35.3 02:49.8 177.89
30 56 30/U17 FFS2659939 2004 PORRET EMIL DA US AUTRANNAI 28:36.7 02:51.2 178.62
31 100 31/U17 FFS2681663 2004 LEVET GASTON MB SCNP ROCHOIS 29:01.0 03:15.5 191.20
32 112 32/U17 FFS2658355 2004 DOUILLET BAPTISTE DA SN CHARTROUS 29:01.6 03:16.1 191.51
33 125 33/U17 FFS2655786 2003 MOREL FOURRIER TOM MB PRAZ LYS-SOM 29:04.0 03:18.5 192.75
34 107 34/U17 FFS2665846 2004 SAGE MARTIN DA SN CHARTROUS 29:04.5 03:19.0 193.01
35 130 35/U17 FFS2671811 2003 TYRODE JOSSE MJ SC LESFOURGS 29:11.5 03:26.0 196.63
36 45 36/U17 FFS2674515 2004 LANNE ANTOINE PE SC AZUN 29:12.1 03:26.6 196.94
37 110 37/U17 FFS2682515 2004 TOURNIER GABIN MJ ES SAUGETTE 29:14.2 03:28.7 198.03
38 14 38/U17 FFS2666640 2004 LAISSUS MILHAN SA SC MENUIRES 29:18.5 03:33.0 200.26
39 31 39/U17 FFS2686923 2004 JACQUES ALBAN MJ OYE-PALLET 29:22.3 03:36.8 202.22
40 19 40/U17 FFS2666711 2004 DONET GAETAN DA SA MEAUDRAIS 29:23.6 03:38.1 202.90
41 69 41/U17 FFS2686203 2004 MIGNOT BAPTISTE MJ SMBM/MORBIER 29:25.6 03:40.1 203.93
42 27 42/U17 FFS2681190 2004 SCHMITT MILO MJ HT JURA SKI 29:25.7 03:40.2 203.98
43 94 43/U17 FFS2665905 2004 MAGINI ELOHANN LY CS VALROMEY 29:26.1 03:40.6 204.19
44 16 44/U17 FFS2687338 2004 RENAUD ALIX MJ DAMPRICHARD 29:27.4 03:41.9 204.86
45 30 45/U17 FFS2661951 2004 SEROT HUGO SA SC BOZEL 29:32.2 03:46.7 207.35
46 67 46/U17 FFS2681176 2003 VERDENET GASPARD MJ OYE-PALLET 29:35.6 03:50.1 209.11
47 85 47/U17 FFS2677441 2004 BUET PIERRE LOIC MJ SMBM/MORBIER 29:35.7 03:50.2 209.16
48 63 48/U17 FFS2670606 2003 SIMONOT ANTONIN SA CS LA FECLAZ 29:39.3 03:53.8 211.02
49 26 49/U17 FFS2677971 2003 MEYER GASPARD SA CS LA FECLAZ 29:41.7 03:56.2 212.26
50 83 50/U17 FFS2654597 2004 DESCAMPS AUBIN SA CS LA FECLAZ 29:44.8 03:59.3 213.87
51 86 51/U17 FFS2688059 2004 GUYETAND BASTIEN PE MONT ARG PVG 29:52.5 04:07.0 217.86
52 61 52/U17 FFS2680999 2004 GRAND JULIEN MJ SC GRANDVAUX 29:52.9 04:07.4 218.06
53 111 53/U17 FFS2664692 2004 GROS MICHELE MB SC CONTAMINE 29:54.0 04:08.5 218.63
54 49 54/U17 FFS2648791 2004 FORTINA ADAM MB SC CONTAMINE 30:00.4 04:14.9 221.94
55 1 55/U17 FFS2675595 2003 BOUVEROT ZIAN MB SC CONTAMINE 30:03.4 04:17.9 223.50
56 66 56/U17 FFS2686888 2004 PELLEGRINI NINO MJ OYE-PALLET 30:08.6 04:23.1 226.19
57 57 57/U17 FFS2676774 2004 PETIOT PAUL AP ES VALLOUISE 30:08.7 04:23.2 226.24
58 18 58/U17 FFS2662962 2004 PANISSET SIMON MB SC GD BORNAN 30:10.6 04:25.1 227.22
59 35 59/U17 FFS2681694 2004 REBOULLET TOM MJ HT JURA SKI 30:13.9 04:28.4 228.93
60 29 60/U17 FFS2665219 2004 COSTE NIELS DA US AUTRANNAI 30:22.8 04:37.3 233.54
61 37 61/U17 FFS2676127 2004 JARRIAND ELIO SA CS LA FECLAZ 30:34.2 04:48.7 239.44
62 65 62/U17 FFS2686392 2004 WERNER JOCELYN MV LAC BLANC SN 30:41.9 04:56.4 243.43
63 76 63/U17 FFS2690981 2004 BERLIOZ ANTHONY SA CS LA FECLAZ 30:42.0 04:56.5 243.48
64 87 64/U17 FFS2686207 2004 CHOLVY ARTHUR AU CN ST JULIEN 30:49.5 05:04.0 247.36
65 92 65/U17 FFS2677531 2004 RAULIN TIMOTHE AP ES VALLOUISE 30:54.3 05:08.8 249.84
66 15 66/U17 FFS2658036 2003 BARON BAPTISTE MB CS LA CLUSAZ 30:54.9 05:09.4 250.16
67 81 67/U17 FFS2664963 2004 BOURDE MARTIN AU CNAP 31:00.7 05:15.2 253.16
68 90 68/U17 FFS2676777 2004 FRIBOURG QUENTIN AP SAUZE BARCEL 31:01.6 05:16.1 253.62
69 70 69/U17 FFS2673533 2004 TUILLIERE ANDEOL AP LES TROLLS 31:04.8 05:19.3 255.28
70 88 70/U17 FFS2665260 2004 TAGLIONE ENZO MJ SMBM/MORBIER 31:06.6 05:21.1 256.21
71 12 71/U17 FFS2688655 2004 MOUCHET ZIAN MJ OYE-PALLET 31:06.9 05:21.4 256.37
72 73 72/U17 FFS2686357 2004 FAUVEL ROMAIN MV LAC BLANC SN 31:17.1 05:31.6 261.65
73 33 73/U17 FFS2684607 2004 ADAM NINO MB CS CHAMONIX 31:24.5 05:39.0 265.48
74 36 74/U17 FFS2680253 2003 FERREIRA JUSTIN MB CS CHAMONIX 31:38.7 05:53.2 272.83
75 75 75/U17 FFS2676099 2004 BLANCHET GASPARD SA CS LA FECLAZ 31:39.9 05:54.4 273.45
76 21 76/U17 FFS2681002 2004 GONIN LEANDRE MB SC GD BORNAN 31:48.0 06:02.5 277.64
77 50 77/U17 FFS2676581 2004 ROUX MATTEO AP MTGVE V.CLAR 31:50.0 06:04.5 278.68
78 53 78/U17 FFS2681037 2003 RENAUD JULES SA CS LA FECLAZ 31:56.0 06:10.5 281.78
79 58 79/U17 FFS2681798 2004 SAVOIE GASTON MJ HT JURA SKI 31:57.4 06:11.9 282.51
80 48 80/U17 FFS2664257 2004 MOREL VICTOR MJ SKI ROUSSES 32:00.3 06:14.8 284.01
81 55 81/U17 FFS2677438 2004 GLAVIEUX GUSTAVE MJ SMBM/MORBIER 32:08.0 06:22.5 287.99
82 7 82/U17 FFS2678952 2004 FAVRE BONVIN TITOUAN MB SC GD BORNAN 32:20.9 06:35.4 294.67
83 4 83/U17 FFS2692384 2004 BARBANCE MARCEAU CE SCM LOZERE 33:31.6 07:46.1 331.27
84 62 84/U17 FFS2676101 2004 CHEVRIER ANTONIN SA CS LA FECLAZ 33:48.7 08:03.2 340.12
85 25 85/U17 FFS2676474 2004 CULLELL GAETAN PE CS FT ROMEU 33:55.6 08:10.1 343.69
86 54 86/U17 FFS2665901 2004 JACQUET GAEL LY CS VALROMEY 35:14.4 09:28.9 384.48
Abandons
3 FFS2667079 2003 CHENU EMMANUEL SA SC PEISEY VA
Non partants
68 FFS2687019 2004 LECOCQ CLEMENT AU CNAP
71 FFS2664007 2004 LERAY AWEN AU CNAP